createdAt,value
2023-05-09T00:03:34.032Z,98805.13
2023-05-09T00:06:10.994Z,98813.00
2023-05-09T00:08:38.823Z,98809.91
2023-05-09T00:11:09.179Z,98814.06
2023-05-09T00:13:38.181Z,98806.41
2023-05-09T00:16:09.710Z,98801.31
2023-05-09T00:18:41.462Z,98803.13
2023-05-09T00:21:10.194Z,98805.88
2023-05-09T00:23:39.598Z,98794.00
2023-05-09T00:26:10.897Z,98802.81
2023-05-09T00:28:44.501Z,98794.31
2023-05-09T00:31:12.953Z,98794.22
2023-05-09T00:33:47.217Z,98789.44
2023-05-09T00:36:15.015Z,98789.34
2023-05-09T00:38:44.180Z,98783.81
2023-05-09T00:41:13.637Z,98782.88
2023-05-09T00:43:41.719Z,98786.91
2023-05-09T00:46:09.313Z,98781.38
2023-05-09T00:48:43.534Z,98786.91
2023-05-09T00:51:17.110Z,98781.72
2023-05-09T00:53:50.609Z,98780.34
2023-05-09T00:56:19.737Z,98776.47
2023-05-09T00:59:00.551Z,98775.78
2023-05-09T01:01:31.843Z,98780.94
2023-05-09T01:04:00.480Z,98772.75
2023-05-09T01:06:45.965Z,98778.81
2023-05-09T01:09:47.673Z,98771.50
2023-05-09T01:12:40.911Z,98778.81
2023-05-09T01:15:29.939Z,98771.28
2023-05-09T01:18:38.668Z,98766.06
2023-05-09T01:21:15.347Z,98765.03
2023-05-09T01:23:48.820Z,98764.75
2023-05-09T01:26:27.366Z,98765.63
2023-05-09T01:29:16.185Z,98766.28
2023-05-09T01:31:50.241Z,98768.06
2023-05-09T01:34:21.880Z,98767.66
2023-05-09T01:36:52.466Z,98766.09
2023-05-09T01:39:24.379Z,98761.31
2023-05-09T01:42:00.297Z,98764.69
2023-05-09T01:44:42.219Z,98764.91
2023-05-09T01:47:17.055Z,98766.28
2023-05-09T01:49:50.225Z,98752.69
2023-05-09T01:52:20.942Z,98759.94
2023-05-09T01:54:51.094Z,98750.59
2023-05-09T01:57:21.043Z,98749.28
2023-05-09T01:59:52.016Z,98745.34
2023-05-09T02:02:20.237Z,98746.38
2023-05-09T02:04:58.281Z,98729.00
2023-05-09T02:07:32.039Z,98743.13
2023-05-09T02:10:03.419Z,98738.53
2023-05-09T02:12:31.832Z,98741.44
2023-05-09T02:15:02.670Z,98737.66
2023-05-09T02:17:32.578Z,98737.66
2023-05-09T02:20:01.148Z,98740.09
2023-05-09T02:22:29.256Z,98730.66
2023-05-09T02:24:58.046Z,98741.38
2023-05-09T02:27:28.449Z,98731.94
2023-05-09T02:29:58.182Z,98723.91
2023-05-09T02:32:30.210Z,98720.31
2023-05-09T02:34:59.868Z,98714.09
2023-05-09T02:37:29.206Z,98714.56
2023-05-09T02:39:58.180Z,98723.81
2023-05-09T02:42:27.419Z,98727.28
2023-05-09T02:45:04.358Z,98730.53
2023-05-09T02:47:33.346Z,98724.31
2023-05-09T02:50:02.211Z,98725.66
2023-05-09T02:52:31.165Z,98725.91
2023-05-09T02:55:00.057Z,98709.00
2023-05-09T02:57:29.641Z,98718.06
2023-05-09T02:59:59.560Z,98717.69
2023-05-09T03:02:28.432Z,98724.06
2023-05-09T03:04:57.579Z,98709.31
2023-05-09T03:07:29.161Z,98720.31
2023-05-09T03:09:57.301Z,98721.25
2023-05-09T03:12:25.862Z,98715.13
2023-05-09T03:14:59.621Z,98706.19
2023-05-09T03:17:27.916Z,98713.81
2023-05-09T03:20:00.525Z,98700.69
2023-05-09T03:22:29.727Z,98715.91
2023-05-09T03:25:02.516Z,98714.00
2023-05-09T03:27:30.124Z,98715.78
2023-05-09T03:30:02.860Z,98711.63
2023-05-09T03:32:30.975Z,98711.38
2023-05-09T03:34:58.894Z,98706.66
2023-05-09T03:37:27.729Z,98694.00
2023-05-09T03:39:55.621Z,98706.25
2023-05-09T03:42:26.932Z,98703.84
2023-05-09T03:45:01.949Z,98703.28
2023-05-09T03:47:34.871Z,98704.66
2023-05-09T03:50:05.630Z,98696.38
2023-05-09T03:52:34.660Z,98696.75
2023-05-09T03:55:06.411Z,98704.59
2023-05-09T03:57:36.352Z,98707.94
2023-05-09T04:00:08.510Z,98708.22
2023-05-09T04:02:45.499Z,98700.19
2023-05-09T04:05:22.430Z,98710.38
2023-05-09T04:07:50.864Z,98697.69
2023-05-09T04:10:23.700Z,98683.59
2023-05-09T04:12:57.153Z,98689.63
2023-05-09T04:15:28.137Z,98700.69
2023-05-09T04:18:01.753Z,98700.50
2023-05-09T04:20:30.008Z,98697.19
2023-05-09T04:22:59.565Z,98704.16
2023-05-09T04:25:29.676Z,98700.03
2023-05-09T04:27:58.042Z,98696.63
2023-05-09T04:30:27.463Z,98695.28
2023-05-09T04:32:56.595Z,98693.13
2023-05-09T04:35:26.396Z,98690.91
2023-05-09T04:37:58.422Z,98693.19
2023-05-09T04:40:27.183Z,98680.44
2023-05-09T04:42:59.463Z,98691.13
2023-05-09T04:45:32.498Z,98692.13
2023-05-09T04:48:01.639Z,98686.47
2023-05-09T04:50:30.601Z,98689.53
2023-05-09T04:52:58.551Z,98679.66
2023-05-09T04:55:26.722Z,98688.88
2023-05-09T04:57:56.005Z,98689.19
2023-05-09T05:00:24.321Z,98690.28
2023-05-09T05:02:51.999Z,98680.97
2023-05-09T05:05:25.178Z,98692.44
2023-05-09T05:08:00.950Z,98675.25
2023-05-09T05:10:33.997Z,98687.91
2023-05-09T05:13:07.909Z,98684.41
2023-05-09T05:15:39.858Z,98695.16
2023-05-09T05:18:09.960Z,98688.47
2023-05-09T05:20:48.949Z,98672.81
2023-05-09T05:23:19.181Z,98683.69
2023-05-09T05:25:48.423Z,98688.66
2023-05-09T05:28:17.154Z,98682.91
2023-05-09T05:30:49.186Z,98685.03
2023-05-09T05:33:17.539Z,98682.75
2023-05-09T05:35:59.106Z,98685.22
2023-05-09T05:38:31.306Z,98684.47
2023-05-09T05:41:00.285Z,98683.41
2023-05-09T05:43:32.634Z,98660.66
2023-05-09T05:46:08.569Z,98669.38
2023-05-09T05:48:38.211Z,98667.44
2023-05-09T05:51:11.783Z,98670.13
2023-05-09T05:53:41.381Z,98669.88
2023-05-09T05:56:11.110Z,98666.38
2023-05-09T05:58:43.624Z,98668.50
2023-05-09T06:01:12.616Z,98668.53
2023-05-09T06:03:42.524Z,98644.06
2023-05-09T06:06:13.254Z,98652.94
2023-05-09T06:08:42.096Z,98658.81
2023-05-09T06:11:12.177Z,98657.09
2023-05-09T06:13:48.962Z,98655.72
2023-05-09T06:16:20.354Z,98664.00
2023-05-09T06:18:52.766Z,98664.41
2023-05-09T06:21:25.085Z,98662.63
2023-05-09T06:24:05.804Z,98650.34
2023-05-09T06:26:41.300Z,98657.88
2023-05-09T06:29:16.691Z,98642.72
2023-05-09T06:31:51.373Z,98655.16
2023-05-09T06:34:19.292Z,98645.13
2023-05-09T06:36:48.779Z,98655.72
2023-05-09T06:39:21.377Z,98640.59
2023-05-09T06:41:56.241Z,98642.03
2023-05-09T06:44:33.516Z,98640.41
2023-05-09T06:47:04.571Z,98632.38
2023-05-09T06:49:37.848Z,98635.69
2023-05-09T06:52:11.947Z,98624.56
2023-05-09T06:54:49.387Z,98635.53
2023-05-09T06:57:19.193Z,98630.38
2023-05-09T06:59:56.787Z,98628.31
2023-05-09T07:02:27.681Z,98628.31
2023-05-09T07:04:59.420Z,98613.94
2023-05-09T07:07:28.955Z,98621.56
2023-05-09T07:10:07.361Z,98621.28
2023-05-09T07:12:38.967Z,98612.50
2023-05-09T07:15:07.703Z,98616.78
2023-05-09T07:17:38.665Z,98604.47
2023-05-09T07:20:09.013Z,98605.16
2023-05-09T07:22:37.580Z,98600.59
2023-05-09T07:25:09.630Z,98608.88
2023-05-09T07:27:42.934Z,98606.44
2023-05-09T07:30:17.004Z,98596.63
2023-05-09T07:32:45.550Z,98604.34
2023-05-09T07:35:16.215Z,98594.31
2023-05-09T07:37:46.573Z,98590.84
2023-05-09T07:40:19.588Z,98592.03
2023-05-09T07:42:50.130Z,98586.47
2023-05-09T07:45:18.938Z,98577.41
2023-05-09T07:47:51.521Z,98577.59
2023-05-09T07:50:20.220Z,98579.41
2023-05-09T07:52:52.018Z,98570.28
2023-05-09T07:55:35.166Z,98567.38
2023-05-09T07:58:05.144Z,98571.81
2023-05-09T08:00:38.993Z,98558.34
2023-05-09T08:03:14.646Z,98553.56
2023-05-09T08:05:45.779Z,98540.59
2023-05-09T08:08:17.132Z,98547.06
2023-05-09T08:10:50.892Z,98543.56
2023-05-09T08:13:30.841Z,98535.56
2023-05-09T08:15:59.432Z,98541.28
2023-05-09T08:18:29.756Z,98543.03
2023-05-09T08:21:00.646Z,98536.38
2023-05-09T08:23:33.698Z,98543.50
2023-05-09T08:26:02.737Z,98535.09
2023-05-09T08:28:32.712Z,98534.06
2023-05-09T08:31:00.305Z,98538.44
2023-05-09T08:33:30.368Z,98535.25
2023-05-09T08:36:01.587Z,98529.03
2023-05-09T08:38:35.892Z,98539.97
2023-05-09T08:41:12.217Z,98538.00
2023-05-09T08:43:41.341Z,98532.84
2023-05-09T08:46:11.433Z,98528.53
2023-05-09T08:48:42.325Z,98520.34
2023-05-09T08:51:12.451Z,98517.16
2023-05-09T08:53:44.066Z,98500.19
2023-05-09T08:56:12.771Z,98502.91
2023-05-09T08:58:41.937Z,98496.16
2023-05-09T09:01:13.852Z,98498.47
2023-05-09T09:06:45.355Z,98501.53
2023-05-09T09:09:21.121Z,98487.25
2023-05-09T09:11:59.284Z,98482.50
2023-05-09T09:14:32.329Z,98485.25
2023-05-09T09:17:05.948Z,98486.22
2023-05-09T09:19:45.286Z,98480.47
2023-05-09T09:22:20.780Z,98479.44
2023-05-09T09:24:49.496Z,98485.97
2023-05-09T09:27:18.301Z,98480.66
2023-05-09T09:29:46.576Z,98480.00
2023-05-09T09:32:16.527Z,98475.56
2023-05-09T09:34:55.678Z,98470.88
2023-05-09T09:37:25.651Z,98470.34
2023-05-09T09:39:58.467Z,98449.72
2023-05-09T09:42:46.452Z,98454.78
2023-05-09T09:45:21.655Z,98463.50
2023-05-09T09:47:53.790Z,98452.25
2023-05-09T09:50:28.629Z,98450.78
2023-05-09T09:53:05.879Z,98456.47
2023-05-09T09:55:37.339Z,98448.09
2023-05-09T09:58:17.689Z,98437.81
2023-05-09T10:00:48.814Z,98437.41
2023-05-09T10:03:17.921Z,98440.53
2023-05-09T10:05:48.498Z,98440.03
2023-05-09T10:08:18.091Z,98422.16
2023-05-09T10:10:49.377Z,98423.44
2023-05-09T10:13:17.410Z,98407.28
2023-05-09T10:15:53.548Z,98397.88
2023-05-09T10:18:29.460Z,98413.84
2023-05-09T10:21:05.620Z,98401.19
2023-05-09T10:23:39.257Z,98400.81
2023-05-09T10:26:28.839Z,98396.09
2023-05-09T10:29:00.562Z,98406.16
2023-05-09T10:31:33.162Z,98400.88
2023-05-09T10:34:06.654Z,98396.78
2023-05-09T10:36:38.255Z,98392.84
2023-05-09T10:39:08.805Z,98388.38
2023-05-09T10:41:37.737Z,98391.81
2023-05-09T10:44:09.686Z,98377.41
2023-05-09T10:46:37.960Z,98373.94
2023-05-09T10:51:36.908Z,98353.63
2023-05-09T10:54:15.523Z,98363.56
2023-05-09T10:56:43.630Z,98356.94
2023-05-09T10:59:44.790Z,98366.13
2023-05-09T11:02:14.993Z,98341.53
2023-05-09T11:04:42.824Z,98337.84
2023-05-09T11:07:34.139Z,98345.38
2023-05-09T11:10:10.808Z,98330.94
2023-05-09T11:13:01.262Z,98328.25
2023-05-09T11:15:30.872Z,98325.47
2023-05-09T11:18:11.073Z,98319.63
2023-05-09T11:20:48.014Z,98313.81
2023-05-09T11:23:22.013Z,98324.88
2023-05-09T11:25:53.701Z,98320.53
2023-05-09T11:28:33.102Z,98310.06
2023-05-09T11:31:17.349Z,98315.22
2023-05-09T11:33:48.648Z,98314.19
2023-05-09T11:36:35.661Z,98306.44
2023-05-09T11:39:14.404Z,98297.41
2023-05-09T11:41:52.821Z,98285.69
2023-05-09T11:44:21.664Z,98289.31
2023-05-09T11:46:50.617Z,98286.06
2023-05-09T11:49:19.677Z,98277.50
2023-05-09T11:51:50.526Z,98276.25
2023-05-09T11:54:25.417Z,98267.53
2023-05-09T11:56:59.895Z,98261.66
2023-05-09T11:59:35.612Z,98230.38
2023-05-09T12:02:11.556Z,98247.72
2023-05-09T12:04:43.651Z,98240.81
2023-05-09T12:07:13.661Z,98239.78
2023-05-09T12:09:41.776Z,98238.25
2023-05-09T12:12:17.613Z,98223.03
2023-05-09T12:14:50.540Z,98231.63
2023-05-09T12:17:18.721Z,98228.72
2023-05-09T12:19:55.300Z,98216.41
2023-05-09T12:22:37.873Z,98210.56
2023-05-09T12:25:16.774Z,98212.56
2023-05-09T12:27:49.169Z,98198.22
2023-05-09T12:30:20.823Z,98207.81
2023-05-09T12:32:51.514Z,98203.63
2023-05-09T12:35:29.081Z,98199.28
2023-05-09T12:38:11.944Z,98204.34
2023-05-09T12:40:43.708Z,98188.06
2023-05-09T12:43:14.662Z,98191.47
2023-05-09T12:45:43.039Z,98190.72
2023-05-09T12:48:19.596Z,98185.34
2023-05-09T12:50:49.096Z,98179.47
2023-05-09T12:53:29.424Z,98175.09
2023-05-09T12:56:06.547Z,98182.03
2023-05-09T12:58:37.005Z,98180.53
2023-05-09T13:01:08.435Z,98159.41
2023-05-09T13:03:39.708Z,98154.88
2023-05-09T13:06:16.615Z,98162.66
2023-05-09T13:09:02.118Z,98168.25
2023-05-09T13:11:35.092Z,98160.75
2023-05-09T13:14:10.995Z,98153.88
2023-05-09T13:16:40.963Z,98152.16
2023-05-09T13:19:10.773Z,98158.25
2023-05-09T13:21:48.621Z,98136.25
2023-05-09T13:24:20.229Z,98151.56
2023-05-09T13:26:50.830Z,98142.63
2023-05-09T13:29:22.980Z,98140.13
2023-05-09T13:31:58.803Z,98149.28
2023-05-09T13:34:39.407Z,98131.72
2023-05-09T13:37:10.972Z,98128.63
2023-05-09T13:39:46.244Z,98129.28
2023-05-09T13:42:27.273Z,98113.66
2023-05-09T13:44:56.790Z,98115.19
2023-05-09T13:47:35.501Z,98111.81
2023-05-09T13:50:09.185Z,98108.91
2023-05-09T13:52:40.104Z,98100.53
2023-05-09T13:55:13.027Z,98108.41
2023-05-09T13:57:46.092Z,98095.06
2023-05-09T14:00:18.560Z,98090.03
2023-05-09T14:02:50.352Z,98076.31
2023-05-09T14:05:21.233Z,98081.13
2023-05-09T14:07:58.396Z,98067.16
2023-05-09T14:10:27.607Z,98068.22
2023-05-09T14:13:03.657Z,98067.13
2023-05-09T14:15:36.477Z,98043.84
2023-05-09T14:18:08.297Z,98053.38
2023-05-09T14:20:38.458Z,98059.19
2023-05-09T14:23:13.700Z,98037.16
2023-05-09T14:25:48.601Z,98042.38
2023-05-09T14:28:21.137Z,98052.41
2023-05-09T14:30:55.788Z,98048.41
2023-05-09T14:33:32.247Z,98044.66
2023-05-09T14:36:04.637Z,98048.50
2023-05-09T14:38:34.293Z,98032.63
2023-05-09T14:41:05.367Z,98040.34
2023-05-09T14:43:36.656Z,98029.84
2023-05-09T14:46:08.244Z,98034.91
2023-05-09T14:48:45.686Z,98018.91
2023-05-09T14:51:15.484Z,98022.72
2023-05-09T14:53:44.599Z,98030.00
2023-05-09T14:56:19.557Z,98016.44
2023-05-09T14:58:52.791Z,98010.38
2023-05-09T15:01:22.413Z,98006.13
2023-05-09T15:03:52.265Z,98007.34
2023-05-09T15:06:26.641Z,98010.94
2023-05-09T15:08:56.817Z,98005.66
2023-05-09T15:11:30.896Z,98004.75
2023-05-09T15:14:16.018Z,97976.09
2023-05-09T15:16:50.229Z,97996.41
2023-05-09T15:19:20.765Z,97988.31
2023-05-09T15:21:52.345Z,97992.81
2023-05-09T15:24:29.121Z,97990.16
2023-05-09T15:27:15.265Z,97985.69
2023-05-09T15:29:46.123Z,97981.78
2023-05-09T15:32:19.642Z,97982.13
2023-05-09T15:34:52.970Z,97984.56
2023-05-09T15:37:28.411Z,97977.38
2023-05-09T15:40:01.048Z,97980.44
2023-05-09T15:42:38.371Z,97987.94
2023-05-09T15:45:11.306Z,97978.84
2023-05-09T15:47:45.063Z,97984.34
2023-05-09T15:50:20.154Z,97971.69
2023-05-09T15:52:52.844Z,97980.03
2023-05-09T15:55:21.828Z,97974.81
2023-05-09T15:57:53.526Z,97981.28
2023-05-09T16:00:27.277Z,97966.34
2023-05-09T16:02:58.725Z,97973.22
2023-05-09T16:05:32.138Z,97968.38
2023-05-09T16:08:05.424Z,97974.19
2023-05-09T16:10:38.911Z,97958.44
2023-05-09T16:13:12.465Z,97950.94
2023-05-09T16:15:48.884Z,97964.13
2023-05-09T16:18:21.243Z,97967.22
2023-05-09T16:20:52.382Z,97954.28
2023-05-09T16:23:21.936Z,97953.28
2023-05-09T16:25:50.407Z,97955.78
2023-05-09T16:28:19.967Z,97950.84
2023-05-09T16:30:52.259Z,97936.25
2023-05-09T16:33:21.705Z,97935.97
2023-05-09T16:35:54.061Z,97941.13
2023-05-09T16:38:33.079Z,97943.94
2023-05-09T16:41:04.006Z,97935.19
2023-05-09T16:43:33.557Z,97939.63
2023-05-09T16:46:02.702Z,97932.53
2023-05-09T16:48:30.936Z,97932.47
2023-05-09T16:50:58.895Z,97931.22
2023-05-09T16:53:35.909Z,97924.97
2023-05-09T16:56:07.952Z,97926.25
2023-05-09T16:58:36.662Z,97929.78
2023-05-09T17:01:13.705Z,97932.66
2023-05-09T17:03:43.538Z,97923.66
2023-05-09T17:06:17.719Z,97929.47
2023-05-09T17:08:49.897Z,97922.88
2023-05-09T17:11:25.164Z,97928.00
2023-05-09T17:13:56.224Z,97916.50
2023-05-09T17:16:26.526Z,97915.59
2023-05-09T17:19:00.298Z,97912.16
2023-05-09T17:21:32.631Z,97917.09
2023-05-09T17:24:02.569Z,97909.97
2023-05-09T17:26:33.710Z,97892.22
2023-05-09T17:29:07.297Z,97920.03
2023-05-09T17:31:37.943Z,97917.03
2023-05-09T17:34:09.520Z,97912.22
2023-05-09T17:36:39.019Z,97916.88
2023-05-09T17:39:09.984Z,97915.66
2023-05-09T17:41:41.427Z,97913.22
2023-05-09T17:44:14.202Z,97900.28
2023-05-09T17:46:45.217Z,97893.88
2023-05-09T17:49:15.156Z,97892.31
2023-05-09T17:51:48.096Z,97903.84
2023-05-09T17:54:20.594Z,97903.16
2023-05-09T17:57:00.464Z,97908.34
2023-05-09T17:59:31.257Z,97901.22
2023-05-09T18:02:03.769Z,97904.16
2023-05-09T18:04:35.583Z,97903.47
2023-05-09T18:07:15.997Z,97898.09
2023-05-09T18:09:56.206Z,97900.19
2023-05-09T18:12:30.037Z,97907.44
2023-05-09T18:14:59.831Z,97895.72
2023-05-09T18:17:30.466Z,97905.22
2023-05-09T18:19:59.972Z,97880.06
2023-05-09T18:22:30.460Z,97902.25
2023-05-09T18:25:00.422Z,97894.25
2023-05-09T18:27:30.126Z,97891.78
2023-05-09T18:29:59.880Z,97890.69
2023-05-09T18:32:33.875Z,97894.97
2023-05-09T18:35:06.509Z,97897.41
2023-05-09T18:37:37.451Z,97899.84
2023-05-09T18:40:07.384Z,97874.97
2023-05-09T18:42:36.947Z,97894.19
2023-05-09T18:45:06.384Z,97897.00
2023-05-09T18:47:36.813Z,97890.19
2023-05-09T18:50:09.987Z,97889.66
2023-05-09T18:52:38.593Z,97900.53
2023-05-09T18:55:09.647Z,97893.63
2023-05-09T18:57:37.332Z,97894.25
2023-05-09T19:00:07.797Z,97891.88
2023-05-09T19:02:36.454Z,97888.34
2023-05-09T19:05:08.575Z,97897.72
2023-05-09T19:07:38.585Z,97884.56
2023-05-09T19:10:08.911Z,97889.41
2023-05-09T19:12:36.847Z,97895.25
2023-05-09T19:15:05.637Z,97894.94
2023-05-09T19:17:33.929Z,97890.44
2023-05-09T19:20:03.292Z,97892.09
2023-05-09T19:22:36.190Z,97882.38
2023-05-09T19:25:06.728Z,97899.28
2023-05-09T19:27:35.797Z,97901.31
2023-05-09T19:30:06.831Z,97897.28
2023-05-09T19:32:41.288Z,97894.94
2023-05-09T19:35:11.483Z,97889.59
2023-05-09T19:37:39.675Z,97882.22
2023-05-09T19:40:12.228Z,97883.88
2023-05-09T19:42:45.257Z,97879.91
2023-05-09T19:45:13.118Z,97865.00
2023-05-09T19:47:41.803Z,97875.47
2023-05-09T19:50:10.789Z,97876.56
2023-05-09T19:52:38.854Z,97875.53
2023-05-09T19:55:14.005Z,97876.97
2023-05-09T19:57:48.575Z,97861.09
2023-05-09T20:00:18.719Z,97877.34
2023-05-09T20:02:47.960Z,97870.81
2023-05-09T20:05:22.360Z,97871.66
2023-05-09T20:07:51.826Z,97867.84
2023-05-09T20:10:19.587Z,97876.72
2023-05-09T20:12:48.511Z,97866.47
2023-05-09T20:15:19.940Z,97868.81
2023-05-09T20:17:50.066Z,97865.78
2023-05-09T20:20:18.468Z,97850.94
2023-05-09T20:22:48.078Z,97865.16
2023-05-09T20:25:16.206Z,97851.63
2023-05-09T20:27:43.624Z,97851.97
2023-05-09T20:30:14.451Z,97850.13
2023-05-09T20:32:43.539Z,97848.88
2023-05-09T20:35:12.314Z,97861.25
2023-05-09T20:37:40.833Z,97851.09
2023-05-09T20:40:10.534Z,97843.03
2023-05-09T20:42:39.619Z,97847.56
2023-05-09T20:45:09.585Z,97840.69
2023-05-09T20:47:37.680Z,97845.81
2023-05-09T20:50:09.462Z,97839.84
2023-05-09T20:52:38.279Z,97841.63
2023-05-09T20:55:09.398Z,97836.63
2023-05-09T20:57:48.332Z,97826.41
2023-05-09T21:00:17.790Z,97824.72
2023-05-09T21:02:46.695Z,97826.88
2023-05-09T21:05:16.967Z,97813.31
2023-05-09T21:07:46.171Z,97813.50
2023-05-09T21:10:15.183Z,97811.78
2023-05-09T21:12:44.072Z,97808.59
2023-05-09T21:15:12.258Z,97806.50
2023-05-09T21:17:40.175Z,97799.31
2023-05-09T21:20:11.626Z,97790.75
2023-05-09T21:22:40.160Z,97781.88
2023-05-09T21:25:09.255Z,97782.91
2023-05-09T21:27:41.018Z,97786.28
2023-05-09T21:30:10.840Z,97782.63
2023-05-09T21:32:39.071Z,97787.63
2023-05-09T21:35:11.775Z,97785.25
2023-05-09T21:37:46.021Z,97779.53
2023-05-09T21:40:14.710Z,97768.81
2023-05-09T21:42:44.698Z,97771.41
2023-05-09T21:45:13.566Z,97773.50
2023-05-09T21:47:41.328Z,97773.44
2023-05-09T21:50:11.311Z,97771.63
2023-05-09T21:52:39.245Z,97763.97
2023-05-09T21:55:10.904Z,97764.41
2023-05-09T21:57:39.020Z,97763.88
2023-05-09T22:00:14.682Z,97740.31
2023-05-09T22:02:43.846Z,97753.16
2023-05-09T22:05:12.386Z,97758.09
2023-05-09T22:07:40.436Z,97742.06
2023-05-09T22:10:09.762Z,97740.16
2023-05-09T22:12:37.737Z,97743.50
2023-05-09T22:15:07.981Z,97733.38
2023-05-09T22:17:39.515Z,97748.81
2023-05-09T22:20:08.656Z,97740.38
2023-05-09T22:22:39.292Z,97743.56
2023-05-09T22:25:10.410Z,97739.69
2023-05-09T22:27:40.201Z,97737.03
2023-05-09T22:30:12.676Z,97740.28
2023-05-09T22:32:43.832Z,97723.03
2023-05-09T22:35:11.796Z,97723.97
2023-05-09T22:37:39.631Z,97720.03
2023-05-09T22:40:08.270Z,97719.72
2023-05-09T22:42:37.005Z,97730.88
2023-05-09T22:45:06.056Z,97722.22
2023-05-09T22:47:34.103Z,97728.41
2023-05-09T22:50:02.379Z,97720.03
2023-05-09T22:52:33.664Z,97726.22
2023-05-09T22:55:07.345Z,97726.81
2023-05-09T22:57:36.425Z,97710.72
2023-05-09T23:00:06.125Z,97718.47
2023-05-09T23:02:36.796Z,97712.06
2023-05-09T23:05:05.796Z,97715.63
2023-05-09T23:07:33.442Z,97709.19
2023-05-09T23:10:01.604Z,97708.97
2023-05-09T23:12:30.902Z,97711.69
2023-05-09T23:14:59.277Z,97710.25
2023-05-09T23:17:30.245Z,97709.56
2023-05-09T23:20:01.005Z,97694.38
2023-05-09T23:22:30.376Z,97704.91
2023-05-09T23:25:01.168Z,97700.75
2023-05-09T23:27:31.803Z,97704.47
2023-05-09T23:30:00.112Z,97694.59
2023-05-09T23:32:30.596Z,97694.25
2023-05-09T23:35:01.507Z,97691.88
2023-05-09T23:37:30.003Z,97683.63
2023-05-09T23:40:04.459Z,97687.25
2023-05-09T23:42:32.169Z,97692.19
2023-05-09T23:45:00.237Z,97682.28
2023-05-09T23:47:28.695Z,97675.88
2023-05-09T23:49:56.713Z,97679.53
2023-05-09T23:52:25.424Z,97677.31
2023-05-09T23:54:59.090Z,97679.28
2023-05-09T23:57:28.302Z,97671.00
2023-05-09T23:59:56.144Z,97658.81
